ولاية سيدي بلعباس, الجزائر

09:28 PM CET on êèنêè 28, 2014 (GMT +0100)
Es Senia (DAOO) Elev 295 ft | 35.63 °N, 0.60 °W | Change Station

Current weather conditions updated 28 minutes ago

Clear
صافية
77 °F
Feels Like 77 °F
N
15
ريح متغير ريح from جنوب غربی

Tomorrow is forecast to be nearly the same temperature as today.

هذا اليوم
High -- | Low -- °F
--% Chance of Precip.
Yesterday
High -- | Low -- °F
Precip. -- في
6:08 AM 8:09 PM
الهلال الأول, 3% visible
الضغط 29.89 في
وضوح الرؤية -9999.0 أميال
سحابات
نقطة الندى 70 °F
الرطوبة 78%
Rainfall 0.00 في
عمق الثلج Not available.
الأشعة فوق البنفسجية Not available.
Pollen Not available.
جودة الهواء Not available.
Flu Activity Not available.
METAR DAOO 282000Z 22013KT CAVOK 25/21 Q1012

More Conditions Fewer Conditions

الضغط 29.89 في
وضوح الرؤية -9999.0 أميال
سحابات
نقطة الندى 70 °F
الرطوبة 78%
Rainfall 0.00 في
عمق الثلج Not available.
الأشعة فوق البنفسجية Not available.
Pollen Not available.
جودة الهواء Not available.
Flu Activity Not available.
METAR DAOO 282000Z 22013KT CAVOK 25/21 Q1012

More Conditions Fewer Conditions

10-Day Weather Forecast

Almanac

علم الفلك

Jul. 28, 2014 Rise Set
Actual Time 6:08 AM CET 8:09 PM CET
Civil Twilight 5:40 AM CET 8:37 PM CET
Nautical Twilight 5:05 AM CET 9:11 PM CET
Astronomical Twilight 4:28 AM CET 9:48 PM CET
قمر 7:31 AM CET 8:49 PM CET
Length Of Visible Light 14h 57m
طول الیوم
14h 00m
Tomorrow will be 1m 33s shorter.
الهلال الأول, 3% of the Moon is Illuminated
هذا اليوم
الهلال الأول
Aug 3
الربع الاول
Aug 10
بدر
Aug 17
الربع الآخر
Aug 25
New

Today's Extremes

Country Highs Country Lows

Community

WunderPhotos

Upload Photos

1,738,488 photos uploaded!

Nearby

جودة الهواء

Not available.

عمق الثلج

Not available.

Earthquake Activity

City Distance Mag. Time & Date
No recent earthquake activity has been reported nearby.
Minimum magnitude displayed is 2.5.

Coastal Water Temperatures

مكان درجات الحرارة
No Stations Reporting

Nearby Weather Stations

There are no personal weather stations in this area.